sensor_id;sensor_type;location;lat;lon;timestamp;pressure;altitude;pressure_sealevel;temperature;humidity
71195;BME280;58908;51.426;7.714;2023-09-07T00:00:25;100243.38;;;15.00;100.00
71195;BME280;58908;51.426;7.714;2023-09-07T00:02:51;100239.03;;;14.99;100.00
71195;BME280;58908;51.426;7.714;2023-09-07T00:05:17;100237.22;;;15.00;100.00
71195;BME280;58908;51.426;7.714;2023-09-07T00:07:44;100234.44;;;15.01;100.00
71195;BME280;58908;51.426;7.714;2023-09-07T00:10:12;100240.50;;;15.03;100.00
71195;BME280;58908;51.426;7.714;2023-09-07T00:12:38;100232.75;;;15.00;100.00
71195;BME280;58908;51.426;7.714;2023-09-07T00:15:05;100231.34;;;14.95;100.00
71195;BME280;58908;51.426;7.714;2023-09-07T00:17:32;100237.00;;;15.03;100.00
71195;BME280;58908;51.426;7.714;2023-09-07T00:19:58;100231.13;;;14.98;100.00
71195;BME280;58908;51.426;7.714;2023-09-07T00:22:25;100234.31;;;14.90;100.00
71195;BME280;58908;51.426;7.714;2023-09-07T00:24:51;100236.97;;;14.78;100.00
71195;BME280;58908;51.426;7.714;2023-09-07T00:27:19;100239.91;;;14.73;100.00
71195;BME280;58908;51.426;7.714;2023-09-07T00:29:45;100234.69;;;14.72;100.00
71195;BME280;58908;51.426;7.714;2023-09-07T00:32:11;100239.66;;;14.64;100.00
71195;BME280;58908;51.426;7.714;2023-09-07T00:34:38;100238.59;;;14.66;100.00
71195;BME280;58908;51.426;7.714;2023-09-07T00:37:04;100236.25;;;14.62;100.00
71195;BME280;58908;51.426;7.714;2023-09-07T00:39:30;100237.22;;;14.61;100.00
71195;BME280;58908;51.426;7.714;2023-09-07T00:41:56;100233.06;;;14.57;100.00
71195;BME280;58908;51.426;7.714;2023-09-07T00:44:24;100230.84;;;14.63;100.00
71195;BME280;58908;51.426;7.714;2023-09-07T00:46:50;100224.44;;;14.53;100.00
71195;BME280;58908;51.426;7.714;2023-09-07T00:49:16;100229.75;;;14.53;100.00
71195;BME280;58908;51.426;7.714;2023-09-07T00:51:43;100228.06;;;14.52;100.00
71195;BME280;58908;51.426;7.714;2023-09-07T00:54:10;100221.88;;;14.52;100.00
71195;BME280;58908;51.426;7.714;2023-09-07T00:56:36;100229.75;;;14.53;100.00
71195;BME280;58908;51.426;7.714;2023-09-07T00:59:02;100220.84;;;14.54;100.00
71195;BME280;58908;51.426;7.714;2023-09-07T01:01:31;100222.75;;;14.52;100.00
71195;BME280;58908;51.426;7.714;2023-09-07T01:03:58;100222.63;;;14.54;100.00
71195;BME280;58908;51.426;7.714;2023-09-07T01:06:25;100221.13;;;14.50;100.00
71195;BME280;58908;51.426;7.714;2023-09-07T01:08:54;100221.56;;;14.44;100.00
71195;BME280;58908;51.426;7.714;2023-09-07T01:11:21;100224.13;;;14.32;100.00
71195;BME280;58908;51.426;7.714;2023-09-07T01:13:48;100217.53;;;14.25;100.00
71195;BME280;58908;51.426;7.714;2023-09-07T01:16:15;100216.69;;;14.24;100.00
71195;BME280;58908;51.426;7.714;2023-09-07T01:18:43;100218.03;;;14.17;100.00
71195;BME280;58908;51.426;7.714;2023-09-07T01:21:09;100219.72;;;14.18;100.00
71195;BME280;58908;51.426;7.714;2023-09-07T01:23:39;100211.28;;;14.12;100.00
71195;BME280;58908;51.426;7.714;2023-09-07T01:26:06;100211.34;;;14.10;100.00
71195;BME280;58908;51.426;7.714;2023-09-07T01:28:33;100207.13;;;14.08;100.00
71195;BME280;58908;51.426;7.714;2023-09-07T01:30:59;100211.56;;;14.07;100.00
71195;BME280;58908;51.426;7.714;2023-09-07T01:33:26;100210.06;;;14.03;100.00
71195;BME280;58908;51.426;7.714;2023-09-07T01:35:52;100209.19;;;14.03;100.00
71195;BME280;58908;51.426;7.714;2023-09-07T01:38:18;100202.41;;;13.99;100.00
71195;BME280;58908;51.426;7.714;2023-09-07T01:40:46;100200.69;;;13.98;100.00
71195;BME280;58908;51.426;7.714;2023-09-07T01:43:12;100195.41;;;13.98;100.00
71195;BME280;58908;51.426;7.714;2023-09-07T01:45:39;100198.78;;;14.00;100.00
71195;BME280;58908;51.426;7.714;2023-09-07T01:48:07;100200.50;;;14.01;100.00
71195;BME280;58908;51.426;7.714;2023-09-07T01:50:34;100194.44;;;13.99;100.00
71195;BME280;58908;51.426;7.714;2023-09-07T01:53:00;100208.06;;;13.93;100.00
71195;BME280;58908;51.426;7.714;2023-09-07T01:55:28;100199.56;;;13.88;100.00
71195;BME280;58908;51.426;7.714;2023-09-07T01:57:56;100202.31;;;13.86;100.00
71195;BME280;58908;51.426;7.714;2023-09-07T02:00:22;100207.44;;;13.75;100.00
71195;BME280;58908;51.426;7.714;2023-09-07T02:02:49;100198.66;;;13.75;100.00
71195;BME280;58908;51.426;7.714;2023-09-07T02:05:15;100203.28;;;13.71;100.00
71195;BME280;58908;51.426;7.714;2023-09-07T02:07:42;100206.78;;;13.72;100.00
71195;BME280;58908;51.426;7.714;2023-09-07T02:10:08;100206.69;;;13.73;100.00
71195;BME280;58908;51.426;7.714;2023-09-07T02:12:35;100207.94;;;13.68;100.00
71195;BME280;58908;51.426;7.714;2023-09-07T02:15:04;100202.53;;;13.69;100.00
71195;BME280;58908;51.426;7.714;2023-09-07T02:17:30;100203.78;;;13.64;100.00
71195;BME280;58908;51.426;7.714;2023-09-07T02:19:57;100207.47;;;13.61;100.00
71195;BME280;58908;51.426;7.714;2023-09-07T02:22:23;100205.09;;;13.57;100.00
71195;BME280;58908;51.426;7.714;2023-09-07T02:24:50;100206.22;;;13.67;100.00
71195;BME280;58908;51.426;7.714;2023-09-07T02:27:16;100211.53;;;13.67;100.00
71195;BME280;58908;51.426;7.714;2023-09-07T02:29:42;100206.69;;;13.73;100.00
71195;BME280;58908;51.426;7.714;2023-09-07T02:32:10;100198.53;;;13.76;100.00
71195;BME280;58908;51.426;7.714;2023-09-07T02:34:36;100194.19;;;13.75;100.00
71195;BME280;58908;51.426;7.714;2023-09-07T02:37:03;100197.53;;;13.65;100.00
71195;BME280;58908;51.426;7.714;2023-09-07T02:39:29;100202.72;;;13.52;100.00
71195;BME280;58908;51.426;7.714;2023-09-07T02:41:56;100199.41;;;13.49;100.00
71195;BME280;58908;51.426;7.714;2023-09-07T02:44:22;100209.25;;;13.47;100.00
71195;BME280;58908;51.426;7.714;2023-09-07T02:46:49;100208.03;;;13.38;100.00
71195;BME280;58908;51.426;7.714;2023-09-07T02:49:16;100202.81;;;13.37;100.00
71195;BME280;58908;51.426;7.714;2023-09-07T02:51:42;100199.41;;;13.35;100.00
71195;BME280;58908;51.426;7.714;2023-09-07T02:54:09;100204.44;;;13.25;100.00
71195;BME280;58908;51.426;7.714;2023-09-07T02:56:36;100204.44;;;13.25;100.00
71195;BME280;58908;51.426;7.714;2023-09-07T02:59:02;100199.41;;;13.49;100.00
71195;BME280;58908;51.426;7.714;2023-09-07T03:01:28;100199.41;;;13.49;100.00
71195;BME280;58908;51.426;7.714;2023-09-07T03:03:55;100189.53;;;13.79;100.00
71195;BME280;58908;51.426;7.714;2023-09-07T03:06:23;100189.94;;;13.73;100.00
71195;BME280;58908;51.426;7.714;2023-09-07T03:08:49;100202.53;;;13.69;100.00
71195;BME280;58908;51.426;7.714;2023-09-07T03:11:17;100200.38;;;13.62;100.00
71195;BME280;58908;51.426;7.714;2023-09-07T03:13:43;100197.34;;;13.54;100.00
71195;BME280;58908;51.426;7.714;2023-09-07T03:16:10;100195.44;;;13.42;100.00
71195;BME280;58908;51.426;7.714;2023-09-07T03:18:36;100192.81;;;13.42;100.00
71195;BME280;58908;51.426;7.714;2023-09-07T03:21:02;100190.81;;;13.45;100.00
71195;BME280;58908;51.426;7.714;2023-09-07T03:23:30;100196.00;;;13.47;100.00
71195;BME280;58908;51.426;7.714;2023-09-07T03:25:58;100195.25;;;13.45;100.00
71195;BME280;58908;51.426;7.714;2023-09-07T03:28:27;100200.75;;;13.42;100.00
71195;BME280;58908;51.426;7.714;2023-09-07T03:30:53;100193.56;;;13.30;100.00
71195;BME280;58908;51.426;7.714;2023-09-07T03:33:20;100196.47;;;13.25;100.00
71195;BME280;58908;51.426;7.714;2023-09-07T03:35:46;100198.25;;;13.25;100.00
71195;BME280;58908;51.426;7.714;2023-09-07T03:38:12;100200.16;;;13.23;100.00
71195;BME280;58908;51.426;7.714;2023-09-07T03:40:40;100200.25;;;13.21;100.00
71195;BME280;58908;51.426;7.714;2023-09-07T03:43:06;100199.75;;;13.15;100.00
71195;BME280;58908;51.426;7.714;2023-09-07T03:45:33;100203.56;;;13.11;100.00
71195;BME280;58908;51.426;7.714;2023-09-07T03:47:59;100203.56;;;13.25;100.00
71195;BME280;58908;51.426;7.714;2023-09-07T03:50:25;100200.63;;;13.29;100.00
71195;BME280;58908;51.426;7.714;2023-09-07T03:52:51;100205.47;;;13.37;100.00
71195;BME280;58908;51.426;7.714;2023-09-07T03:55:20;100205.31;;;13.40;100.00
71195;BME280;58908;51.426;7.714;2023-09-07T03:57:48;100207.47;;;13.33;100.00
71195;BME280;58908;51.426;7.714;2023-09-07T04:00:15;100204.31;;;13.27;100.00
71195;BME280;58908;51.426;7.714;2023-09-07T04:02:41;100197.59;;;13.21;100.00
71195;BME280;58908;51.426;7.714;2023-09-07T04:05:08;100202.41;;;13.15;100.00
71195;BME280;58908;51.426;7.714;2023-09-07T04:07:35;100199.00;;;13.13;100.00
71195;BME280;58908;51.426;7.714;2023-09-07T04:10:02;100186.78;;;13.10;100.00
71195;BME280;58908;51.426;7.714;2023-09-07T04:12:28;100191.19;;;13.11;100.00
71195;BME280;58908;51.426;7.714;2023-09-07T04:14:56;100195.13;;;13.04;100.00
71195;BME280;58908;51.426;7.714;2023-09-07T04:17:22;100197.69;;;13.06;100.00
71195;BME280;58908;51.426;7.714;2023-09-07T04:19:48;100193.50;;;13.02;100.00
71195;BME280;58908;51.426;7.714;2023-09-07T04:22:15;100184.13;;;12.96;100.00
71195;BME280;58908;51.426;7.714;2023-09-07T04:24:41;100189.66;;;12.92;100.00
71195;BME280;58908;51.426;7.714;2023-09-07T04:27:07;100193.97;;;12.94;100.00
71195;BME280;58908;51.426;7.714;2023-09-07T04:29:34;100186.63;;;13.13;100.00
71195;BME280;58908;51.426;7.714;2023-09-07T04:32:01;100190.03;;;13.15;100.00
71195;BME280;58908;51.426;7.714;2023-09-07T04:34:28;100193.53;;;13.16;100.00
71195;BME280;58908;51.426;7.714;2023-09-07T04:36:54;100195.81;;;13.22;100.00
71195;BME280;58908;51.426;7.714;2023-09-07T04:39:20;100193.72;;;13.27;100.00
71195;BME280;58908;51.426;7.714;2023-09-07T04:41:46;100191.19;;;13.25;100.00
71195;BME280;58908;51.426;7.714;2023-09-07T04:44:13;100191.94;;;13.27;100.00
71195;BME280;58908;51.426;7.714;2023-09-07T04:46:40;100191.19;;;13.25;100.00
71195;BME280;58908;51.426;7.714;2023-09-07T04:49:07;100194.19;;;13.19;100.00
71195;BME280;58908;51.426;7.714;2023-09-07T04:51:33;100199.50;;;13.19;100.00
71195;BME280;58908;51.426;7.714;2023-09-07T04:54:00;100198.81;;;13.16;100.00
71195;BME280;58908;51.426;7.714;2023-09-07T04:56:26;100202.53;;;13.13;100.00
71195;BME280;58908;51.426;7.714;2023-09-07T04:58:54;100204.50;;;13.24;100.00
71195;BME280;58908;51.426;7.714;2023-09-07T05:01:20;100210.69;;;13.24;100.00
71195;BME280;58908;51.426;7.714;2023-09-07T05:03:46;100199.31;;;13.22;100.00
71195;BME280;58908;51.426;7.714;2023-09-07T05:06:14;100211.22;;;13.15;100.00
71195;BME280;58908;51.426;7.714;2023-09-07T05:08:40;100216.44;;;13.17;100.00
71195;BME280;58908;51.426;7.714;2023-09-07T05:11:07;100209.94;;;13.22;100.00
71195;BME280;58908;51.426;7.714;2023-09-07T05:13:33;100210.94;;;13.20;100.00
71195;BME280;58908;51.426;7.714;2023-09-07T05:16:00;100213.78;;;13.17;100.00
71195;BME280;58908;51.426;7.714;2023-09-07T05:18:26;100218.22;;;13.16;100.00
71195;BME280;58908;51.426;7.714;2023-09-07T05:20:53;100214.06;;;13.12;100.00
71195;BME280;58908;51.426;7.714;2023-09-07T05:23:20;100213.69;;;13.18;100.00
71195;BME280;58908;51.426;7.714;2023-09-07T05:25:47;100214.56;;;13.19;100.00
71195;BME280;58908;51.426;7.714;2023-09-07T05:28:15;100210.28;;;13.16;100.00
71195;BME280;58908;51.426;7.714;2023-09-07T05:30:42;100214.91;;;13.13;100.00
71195;BME280;58908;51.426;7.714;2023-09-07T05:33:08;100210.56;;;13.12;100.00
71195;BME280;58908;51.426;7.714;2023-09-07T05:35:35;100215.03;;;13.11;100.00
71195;BME280;58908;51.426;7.714;2023-09-07T05:38:01;100208.78;;;13.12;100.00
71195;BME280;58908;51.426;7.714;2023-09-07T05:40:29;100215.78;;;13.13;100.00
71195;BME280;58908;51.426;7.714;2023-09-07T05:42:56;100216.13;;;13.21;100.00
71195;BME280;58908;51.426;7.714;2023-09-07T05:45:22;100216.53;;;13.29;100.00
71195;BME280;58908;51.426;7.714;2023-09-07T05:47:48;100218.72;;;13.37;100.00
71195;BME280;58908;51.426;7.714;2023-09-07T05:50:15;100210.97;;;13.48;100.00
71195;BME280;58908;51.426;7.714;2023-09-07T05:52:41;100223.66;;;13.57;100.00
71195;BME280;58908;51.426;7.714;2023-09-07T05:55:07;100221.88;;;13.57;100.00
71195;BME280;58908;51.426;7.714;2023-09-07T05:57:35;100221.88;;;13.57;100.00
71195;BME280;58908;51.426;7.714;2023-09-07T06:00:02;100219.69;;;13.64;100.00
71195;BME280;58908;51.426;7.714;2023-09-07T06:02:29;100222.69;;;13.72;100.00
71195;BME280;58908;51.426;7.714;2023-09-07T06:04:55;100222.41;;;13.90;100.00
71195;BME280;58908;51.426;7.714;2023-09-07T06:07:21;100217.91;;;14.05;100.00
71195;BME280;58908;51.426;7.714;2023-09-07T06:09:47;100224.81;;;14.21;100.00
71195;BME280;58908;51.426;7.714;2023-09-07T06:12:14;100213.97;;;14.38;100.00
71195;BME280;58908;51.426;7.714;2023-09-07T06:14:41;100222.63;;;14.54;100.00
71195;BME280;58908;51.426;7.714;2023-09-07T06:17:09;100228.53;;;14.71;100.00
71195;BME280;58908;51.426;7.714;2023-09-07T06:19:35;100228.69;;;15.34;100.00
71195;BME280;58908;51.426;7.714;2023-09-07T06:22:01;100213.28;;;17.17;100.00
71195;BME280;58908;51.426;7.714;2023-09-07T06:24:28;100190.69;;;18.84;100.00
71195;BME280;58908;51.426;7.714;2023-09-07T06:26:54;100146.97;;;19.95;100.00
71195;BME280;58908;51.426;7.714;2023-09-07T06:29:20;100138.00;;;19.76;100.00
71195;BME280;58908;51.426;7.714;2023-09-07T06:31:48;100116.59;;;20.82;100.00
71195;BME280;58908;51.426;7.714;2023-09-07T06:34:15;100086.66;;;21.78;100.00
71195;BME280;58908;51.426;7.714;2023-09-07T06:36:41;100085.41;;;22.34;100.00
71195;BME280;58908;51.426;7.714;2023-09-07T06:39:07;100074.44;;;22.63;100.00
71195;BME280;58908;51.426;7.714;2023-09-07T06:41:34;100083.56;;;22.35;100.00
71195;BME280;58908;51.426;7.714;2023-09-07T06:44:00;100066.16;;;23.58;96.66
71195;BME280;58908;51.426;7.714;2023-09-07T06:46:26;100061.56;;;23.84;93.04
71195;BME280;58908;51.426;7.714;2023-09-07T06:48:54;100047.59;;;25.40;90.05
71195;BME280;58908;51.426;7.714;2023-09-07T06:51:20;100023.69;;;25.05;81.98
71195;BME280;58908;51.426;7.714;2023-09-07T06:53:46;100073.28;;;24.33;87.76
71195;BME280;58908;51.426;7.714;2023-09-07T06:56:15;100083.84;;;24.10;88.68
71195;BME280;58908;51.426;7.714;2023-09-07T06:58:41;100070.13;;;24.85;86.27
71195;BME280;58908;51.426;7.714;2023-09-07T07:01:07;100024.72;;;27.31;79.49
71195;BME280;58908;51.426;7.714;2023-09-07T07:03:34;100023.50;;;26.67;77.45
71195;BME280;58908;51.426;7.714;2023-09-07T07:06:01;100045.63;;;25.65;78.07
71195;BME280;58908;51.426;7.714;2023-09-07T07:08:28;100094.03;;;24.48;84.68
71195;BME280;58908;51.426;7.714;2023-09-07T07:10:54;100094.94;;;24.73;85.75
71195;BME280;58908;51.426;7.714;2023-09-07T07:13:20;100077.44;;;25.47;83.23
71195;BME280;58908;51.426;7.714;2023-09-07T07:15:47;100077.91;;;25.58;82.90
71195;BME280;58908;51.426;7.714;2023-09-07T07:18:13;100096.41;;;25.31;83.91
71195;BME280;58908;51.426;7.714;2023-09-07T07:20:42;100097.41;;;25.38;85.66
71195;BME280;58908;51.426;7.714;2023-09-07T07:23:10;100077.94;;;25.97;83.65
71195;BME280;58908;51.426;7.714;2023-09-07T07:25:37;100071.84;;;26.25;83.17
71195;BME280;58908;51.426;7.714;2023-09-07T07:28:04;100093.19;;;25.19;84.54
71195;BME280;58908;51.426;7.714;2023-09-07T07:30:31;100083.41;;;25.73;84.24
71195;BME280;58908;51.426;7.714;2023-09-07T07:32:57;100061.13;;;26.77;80.25
71195;BME280;58908;51.426;7.714;2023-09-07T07:35:23;100026.09;;;27.84;74.51
71195;BME280;58908;51.426;7.714;2023-09-07T07:37:50;100034.69;;;27.88;74.30
71195;BME280;58908;51.426;7.714;2023-09-07T07:40:18;100041.19;;;28.08;75.23
71195;BME280;58908;51.426;7.714;2023-09-07T07:42:45;100026.81;;;27.93;71.23
71195;BME280;58908;51.426;7.714;2023-09-07T07:45:12;100007.03;;;28.13;68.59
71195;BME280;58908;51.426;7.714;2023-09-07T07:47:39;100010.84;;;28.19;68.58
71195;BME280;58908;51.426;7.714;2023-09-07T07:50:06;100019.00;;;28.40;68.02
71195;BME280;58908;51.426;7.714;2023-09-07T07:52:32;100011.88;;;27.68;67.04
71195;BME280;58908;51.426;7.714;2023-09-07T07:54:59;100007.09;;;27.70;65.37
71195;BME280;58908;51.426;7.714;2023-09-07T07:57:26;100005.66;;;28.66;64.45
71195;BME280;58908;51.426;7.714;2023-09-07T07:59:52;100002.84;;;28.53;65.05
71195;BME280;58908;51.426;7.714;2023-09-07T08:02:19;100022.91;;;27.81;66.18
71195;BME280;58908;51.426;7.714;2023-09-07T08:04:45;99994.69;;;28.53;62.76
71195;BME280;58908;51.426;7.714;2023-09-07T08:07:12;99990.19;;;29.21;63.27
71195;BME280;58908;51.426;7.714;2023-09-07T08:09:38;99980.66;;;28.28;60.69
71195;BME280;58908;51.426;7.714;2023-09-07T08:12:05;99992.25;;;27.80;61.73
71195;BME280;58908;51.426;7.714;2023-09-07T08:14:32;99984.13;;;27.66;60.53
71195;BME280;58908;51.426;7.714;2023-09-07T08:16:59;99983.88;;;28.17;60.93
71195;BME280;58908;51.426;7.714;2023-09-07T08:19:26;99976.13;;;28.14;59.74
71195;BME280;58908;51.426;7.714;2023-09-07T08:21:53;99984.59;;;28.26;59.83
71195;BME280;58908;51.426;7.714;2023-09-07T08:24:19;99975.31;;;28.35;58.17
71195;BME280;58908;51.426;7.714;2023-09-07T08:26:45;100025.72;;;28.08;63.68
71195;BME280;58908;51.426;7.714;2023-09-07T08:29:15;99992.75;;;27.55;60.29
71195;BME280;58908;51.426;7.714;2023-09-07T08:31:43;99990.47;;;28.50;59.65
71195;BME280;58908;51.426;7.714;2023-09-07T08:34:10;99979.44;;;27.60;58.41
71195;BME280;58908;51.426;7.714;2023-09-07T08:36:38;99993.31;;;27.07;59.76
71195;BME280;58908;51.426;7.714;2023-09-07T08:39:04;99992.41;;;28.14;58.78
71195;BME280;58908;51.426;7.714;2023-09-07T08:41:35;99984.97;;;28.02;58.10
71195;BME280;58908;51.426;7.714;2023-09-07T08:44:02;99966.56;;;28.18;56.83
71195;BME280;58908;51.426;7.714;2023-09-07T08:46:30;99969.06;;;28.34;57.17
71195;BME280;58908;51.426;7.714;2023-09-07T08:49:00;99965.31;;;28.63;56.36
71195;BME280;58908;51.426;7.714;2023-09-07T08:51:26;99975.47;;;27.42;56.85
71195;BME280;58908;51.426;7.714;2023-09-07T08:53:53;99999.50;;;28.78;59.71
71195;BME280;58908;51.426;7.714;2023-09-07T08:56:21;99955.50;;;28.89;55.86
71195;BME280;58908;51.426;7.714;2023-09-07T08:58:48;99995.91;;;27.58;59.35
71195;BME280;58908;51.426;7.714;2023-09-07T09:01:15;99992.41;;;27.15;60.01
71195;BME280;58908;51.426;7.714;2023-09-07T09:03:41;99981.84;;;28.40;58.42
71195;BME280;58908;51.426;7.714;2023-09-07T09:06:10;99993.69;;;27.48;59.35
71195;BME280;58908;51.426;7.714;2023-09-07T09:08:43;100001.34;;;27.73;59.56
71195;BME280;58908;51.426;7.714;2023-09-07T09:11:09;99976.47;;;29.02;57.90
71195;BME280;58908;51.426;7.714;2023-09-07T09:13:35;99972.56;;;29.11;57.90
71195;BME280;58908;51.426;7.714;2023-09-07T09:16:02;99973.97;;;28.45;57.16
71195;BME280;58908;51.426;7.714;2023-09-07T09:18:28;99999.38;;;27.52;60.31
71195;BME280;58908;51.426;7.714;2023-09-07T09:20:55;99998.16;;;27.55;60.48
71195;BME280;58908;51.426;7.714;2023-09-07T09:23:25;99990.28;;;28.31;58.33
71195;BME280;58908;51.426;7.714;2023-09-07T09:25:56;99987.31;;;28.05;58.44
71195;BME280;58908;51.426;7.714;2023-09-07T09:28:22;99988.66;;;28.15;57.55
71195;BME280;58908;51.426;7.714;2023-09-07T09:30:51;99996.59;;;27.46;60.10
71195;BME280;58908;51.426;7.714;2023-09-07T09:33:18;99987.06;;;28.21;57.69
71195;BME280;58908;51.426;7.714;2023-09-07T09:35:45;99990.44;;;28.71;58.33
71195;BME280;58908;51.426;7.714;2023-09-07T09:38:12;99971.25;;;29.81;58.07
71195;BME280;58908;51.426;7.714;2023-09-07T09:40:40;99991.75;;;27.91;58.67
71195;BME280;58908;51.426;7.714;2023-09-07T09:43:06;99974.78;;;28.94;57.04
71195;BME280;58908;51.426;7.714;2023-09-07T09:45:34;99977.19;;;28.55;57.79
71195;BME280;58908;51.426;7.714;2023-09-07T09:48:00;99991.97;;;28.11;59.26
71195;BME280;58908;51.426;7.714;2023-09-07T09:50:28;99981.66;;;28.69;57.54
71195;BME280;58908;51.426;7.714;2023-09-07T09:52:54;99974.94;;;28.65;57.33
71195;BME280;58908;51.426;7.714;2023-09-07T09:55:22;99968.88;;;28.21;57.20
71195;BME280;58908;51.426;7.714;2023-09-07T09:57:49;99986.41;;;28.19;59.22
71195;BME280;58908;51.426;7.714;2023-09-07T10:00:16;99990.09;;;28.11;59.73
71195;BME280;58908;51.426;7.714;2023-09-07T10:02:51;99966.09;;;29.12;57.66
71195;BME280;58908;51.426;7.714;2023-09-07T10:05:20;99983.13;;;28.02;59.62
71195;BME280;58908;51.426;7.714;2023-09-07T10:07:48;99988.59;;;28.30;61.11
71195;BME280;58908;51.426;7.714;2023-09-07T10:10:15;99988.84;;;27.93;61.07
71195;BME280;58908;51.426;7.714;2023-09-07T10:12:41;100003.41;;;27.56;63.36
71195;BME280;58908;51.426;7.714;2023-09-07T10:15:20;99995.13;;;27.29;62.54
71195;BME280;58908;51.426;7.714;2023-09-07T10:17:46;99997.28;;;27.19;63.71
71195;BME280;58908;51.426;7.714;2023-09-07T10:20:15;100019.06;;;27.03;65.23
71195;BME280;58908;51.426;7.714;2023-09-07T10:22:43;100004.75;;;26.80;64.50
71195;BME280;58908;51.426;7.714;2023-09-07T10:25:19;99994.94;;;26.65;62.87
71195;BME280;58908;51.426;7.714;2023-09-07T10:27:46;100000.53;;;27.15;64.48
71195;BME280;58908;51.426;7.714;2023-09-07T10:30:13;100006.75;;;27.01;65.44
71195;BME280;58908;51.426;7.714;2023-09-07T10:32:45;99994.69;;;27.03;64.43
71195;BME280;58908;51.426;7.714;2023-09-07T10:35:14;100001.44;;;27.07;65.09
71195;BME280;58908;51.426;7.714;2023-09-07T10:37:43;99979.00;;;26.99;63.28
71195;BME280;58908;51.426;7.714;2023-09-07T10:40:10;99997.31;;;26.97;65.18
71195;BME280;58908;51.426;7.714;2023-09-07T10:42:37;99991.63;;;27.35;64.94
71195;BME280;58908;51.426;7.714;2023-09-07T10:45:10;99994.03;;;27.73;65.42
71195;BME280;58908;51.426;7.714;2023-09-07T10:47:40;99987.41;;;27.61;63.23
71195;BME280;58908;51.426;7.714;2023-09-07T10:50:08;99977.66;;;27.81;62.76
71195;BME280;58908;51.426;7.714;2023-09-07T10:52:35;99973.03;;;27.61;64.12
71195;BME280;58908;51.426;7.714;2023-09-07T10:55:01;99975.81;;;27.67;63.56
71195;BME280;58908;51.426;7.714;2023-09-07T10:57:28;99975.59;;;27.69;63.22
71195;BME280;58908;51.426;7.714;2023-09-07T10:59:54;99972.44;;;28.01;63.28
71195;BME280;58908;51.426;7.714;2023-09-07T11:02:20;99955.41;;;27.86;61.86
71195;BME280;58908;51.426;7.714;2023-09-07T11:04:47;99957.56;;;27.76;62.05
71195;BME280;58908;51.426;7.714;2023-09-07T11:07:14;99956.50;;;27.91;62.67
71195;BME280;58908;51.426;7.714;2023-09-07T11:09:42;99957.47;;;28.05;62.28
71195;BME280;58908;51.426;7.714;2023-09-07T11:12:11;99946.75;;;28.18;61.85
71195;BME280;58908;51.426;7.714;2023-09-07T11:14:38;99944.53;;;28.49;63.18
71195;BME280;58908;51.426;7.714;2023-09-07T11:17:04;99930.88;;;28.21;61.16
71195;BME280;58908;51.426;7.714;2023-09-07T11:19:31;99922.91;;;28.13;60.04
71195;BME280;58908;51.426;7.714;2023-09-07T11:21:57;99925.28;;;28.23;60.82
71195;BME280;58908;51.426;7.714;2023-09-07T11:24:26;99927.59;;;28.47;60.58
71195;BME280;58908;51.426;7.714;2023-09-07T11:26:53;99925.97;;;28.31;60.61
71195;BME280;58908;51.426;7.714;2023-09-07T11:29:19;99919.41;;;28.19;59.22
71195;BME280;58908;51.426;7.714;2023-09-07T11:31:46;99920.38;;;28.33;60.26
71195;BME280;58908;51.426;7.714;2023-09-07T11:34:12;99896.00;;;28.39;58.37
71195;BME280;58908;51.426;7.714;2023-09-07T11:36:39;99915.91;;;28.46;59.27
71195;BME280;58908;51.426;7.714;2023-09-07T11:39:05;99899.84;;;28.03;57.11
71195;BME280;58908;51.426;7.714;2023-09-07T11:41:38;99909.13;;;28.15;58.43
71195;BME280;58908;51.426;7.714;2023-09-07T11:44:06;99883.41;;;28.32;55.97
71195;BME280;58908;51.426;7.714;2023-09-07T11:46:32;99908.94;;;28.65;59.42
71195;BME280;58908;51.426;7.714;2023-09-07T11:48:58;99903.09;;;28.68;58.43
71195;BME280;58908;51.426;7.714;2023-09-07T11:51:24;99871.00;;;28.44;55.75
71195;BME280;58908;51.426;7.714;2023-09-07T11:53:51;99883.47;;;28.66;57.01
71195;BME280;58908;51.426;7.714;2023-09-07T11:56:17;99872.31;;;28.54;56.46
71195;BME280;58908;51.426;7.714;2023-09-07T11:58:45;99883.88;;;28.63;57.30
71195;BME280;58908;51.426;7.714;2023-09-07T12:01:11;99873.31;;;28.47;55.16
71195;BME280;58908;51.426;7.714;2023-09-07T12:03:39;99874.16;;;28.47;56.78
71195;BME280;58908;51.426;7.714;2023-09-07T12:06:05;99875.03;;;28.88;55.84
71195;BME280;58908;51.426;7.714;2023-09-07T12:08:32;99869.97;;;28.79;55.38
71195;BME280;58908;51.426;7.714;2023-09-07T12:10:58;99863.78;;;28.57;55.40
71195;BME280;58908;51.426;7.714;2023-09-07T12:13:24;99861.94;;;28.64;55.20
71195;BME280;58908;51.426;7.714;2023-09-07T12:15:53;99877.69;;;28.82;56.91
71195;BME280;58908;51.426;7.714;2023-09-07T12:18:20;99919.13;;;28.90;62.28
71195;BME280;58908;51.426;7.714;2023-09-07T12:20:46;99931.75;;;28.98;63.94
71195;BME280;58908;51.426;7.714;2023-09-07T12:23:12;99916.75;;;28.81;62.13
71195;BME280;58908;51.426;7.714;2023-09-07T12:25:38;99910.81;;;28.92;63.46
71195;BME280;58908;51.426;7.714;2023-09-07T12:28:05;99851.69;;;28.94;56.50
71195;BME280;58908;51.426;7.714;2023-09-07T12:30:31;99906.56;;;28.83;61.58
71195;BME280;58908;51.426;7.714;2023-09-07T12:32:59;99918.44;;;28.82;64.17
71195;BME280;58908;51.426;7.714;2023-09-07T12:35:25;99909.56;;;28.67;64.27
71195;BME280;58908;51.426;7.714;2023-09-07T12:37:51;99905.84;;;28.74;64.33
71195;BME280;58908;51.426;7.714;2023-09-07T12:40:18;99882.75;;;28.85;60.92
71195;BME280;58908;51.426;7.714;2023-09-07T12:42:45;99850.09;;;29.12;57.16
71195;BME280;58908;51.426;7.714;2023-09-07T12:45:11;99841.06;;;28.99;54.84